sensor_id;sensor_type;location;lat;lon;timestamp;pressure;altitude;pressure_sealevel;temperature;humidity
48774;BME280;34576;0.000;0.000;2023-07-13T00:02:34;96739.03;;;22.04;57.91
48774;BME280;34576;0.000;0.000;2023-07-13T00:09:34;96746.19;;;22.59;57.17
48774;BME280;34576;0.000;0.000;2023-07-13T00:16:36;96745.22;;;22.55;55.62
48774;BME280;34576;0.000;0.000;2023-07-13T00:23:37;96738.91;;;22.37;55.49
48774;BME280;34576;0.000;0.000;2023-07-13T00:30:38;96745.25;;;22.27;55.49
48774;BME280;34576;0.000;0.000;2023-07-13T00:37:38;96739.78;;;22.32;55.26
48774;BME280;34576;0.000;0.000;2023-07-13T00:44:39;96731.06;;;22.40;54.16
48774;BME280;34576;0.000;0.000;2023-07-13T00:51:52;96741.78;;;22.40;53.73
48774;BME280;34576;0.000;0.000;2023-07-13T00:58:54;96738.50;;;22.16;54.35
48774;BME280;34576;0.000;0.000;2023-07-13T01:05:55;96745.19;;;22.04;54.35
48774;BME280;34576;0.000;0.000;2023-07-13T01:12:55;96740.63;;;22.05;54.22
48774;BME280;34576;0.000;0.000;2023-07-13T01:19:57;96736.66;;;22.02;52.46
48774;BME280;34576;0.000;0.000;2023-07-13T01:26:57;96719.50;;;22.03;52.19
48774;BME280;34576;0.000;0.000;2023-07-13T01:33:57;96724.41;;;21.60;58.34
48774;BME280;34576;0.000;0.000;2023-07-13T01:40:59;96715.56;;;21.87;59.02
48774;BME280;34576;0.000;0.000;2023-07-13T01:47:59;96715.78;;;21.77;59.76
48774;BME280;34576;0.000;0.000;2023-07-13T01:54:59;96710.50;;;21.71;61.61
48774;BME280;34576;0.000;0.000;2023-07-13T02:02:00;96714.56;;;21.83;60.60
48774;BME280;34576;0.000;0.000;2023-07-13T02:09:00;96709.34;;;21.64;57.75
48774;BME280;34576;0.000;0.000;2023-07-13T02:16:01;96721.78;;;21.41;56.02
48774;BME280;34576;0.000;0.000;2023-07-13T02:23:01;96713.63;;;21.18;54.67
48774;BME280;34576;0.000;0.000;2023-07-13T02:30:02;96702.69;;;20.86;54.95
48774;BME280;34576;0.000;0.000;2023-07-13T02:37:03;96707.22;;;20.86;54.24
48774;BME280;34576;0.000;0.000;2023-07-13T02:44:03;96715.09;;;21.10;53.35
48774;BME280;34576;0.000;0.000;2023-07-13T02:51:04;96708.56;;;21.02;53.56
48774;BME280;34576;0.000;0.000;2023-07-13T02:58:04;96712.63;;;20.48;54.32
48774;BME280;34576;0.000;0.000;2023-07-13T03:05:06;96710.63;;;20.53;52.82
48774;BME280;34576;0.000;0.000;2023-07-13T03:12:07;96707.47;;;20.71;52.49
48774;BME280;34576;0.000;0.000;2023-07-13T03:19:07;96716.13;;;20.62;53.06
48774;BME280;34576;0.000;0.000;2023-07-13T03:26:10;96714.34;;;20.91;52.94
48774;BME280;34576;0.000;0.000;2023-07-13T03:33:15;96728.69;;;20.62;53.74
48774;BME280;34576;0.000;0.000;2023-07-13T03:40:15;96723.34;;;21.42;52.76
48774;BME280;34576;0.000;0.000;2023-07-13T03:47:18;96730.22;;;22.54;51.86
48774;BME280;34576;0.000;0.000;2023-07-13T03:54:19;96735.28;;;22.78;52.56
48774;BME280;34576;0.000;0.000;2023-07-13T04:01:21;96733.63;;;22.91;53.78
48774;BME280;34576;0.000;0.000;2023-07-13T04:08:22;96740.31;;;23.02;54.29
48774;BME280;34576;0.000;0.000;2023-07-13T04:15:22;96745.78;;;23.11;54.81
48774;BME280;34576;0.000;0.000;2023-07-13T04:22:22;96751.19;;;23.20;55.27
48774;BME280;34576;0.000;0.000;2023-07-13T04:29:22;96749.06;;;22.49;52.16
48774;BME280;34576;0.000;0.000;2023-07-13T04:36:23;96764.00;;;22.41;51.67
48774;BME280;34576;0.000;0.000;2023-07-13T04:43:27;96777.13;;;21.73;52.31
48774;BME280;34576;0.000;0.000;2023-07-13T04:50:28;96771.53;;;21.28;52.30
48774;BME280;34576;0.000;0.000;2023-07-13T04:57:28;96773.16;;;22.12;52.11
48774;BME280;34576;0.000;0.000;2023-07-13T05:04:28;96790.41;;;21.64;52.25
48774;BME280;34576;0.000;0.000;2023-07-13T05:11:29;96788.81;;;22.47;52.19
48774;BME280;34576;0.000;0.000;2023-07-13T05:18:29;96796.06;;;22.46;52.59
48774;BME280;34576;0.000;0.000;2023-07-13T05:25:30;96806.97;;;22.50;52.64
48774;BME280;34576;0.000;0.000;2023-07-13T05:32:30;96812.66;;;22.34;52.50
48774;BME280;34576;0.000;0.000;2023-07-13T05:39:30;96820.78;;;22.15;52.79
48774;BME280;34576;0.000;0.000;2023-07-13T05:46:31;96827.31;;;22.51;52.78
48774;BME280;34576;0.000;0.000;2023-07-13T05:53:31;96819.38;;;22.46;53.14
48774;BME280;34576;0.000;0.000;2023-07-13T06:00:31;96830.53;;;22.39;53.83
48774;BME280;34576;0.000;0.000;2023-07-13T06:07:31;96824.75;;;22.46;53.32
48774;BME280;34576;0.000;0.000;2023-07-13T06:14:32;96827.41;;;22.46;53.68
48774;BME280;34576;0.000;0.000;2023-07-13T06:21:32;96836.66;;;22.39;54.08
48774;BME280;34576;0.000;0.000;2023-07-13T06:28:33;96840.81;;;22.46;53.31
48774;BME280;34576;0.000;0.000;2023-07-13T06:35:34;96841.50;;;22.51;52.86
48774;BME280;34576;0.000;0.000;2023-07-13T06:42:34;96838.81;;;22.51;52.32
48774;BME280;34576;0.000;0.000;2023-07-13T06:49:34;96837.25;;;22.50;52.05
48774;BME280;34576;0.000;0.000;2023-07-13T06:56:35;96838.06;;;21.95;51.54
48774;BME280;34576;0.000;0.000;2023-07-13T07:03:35;96842.31;;;22.24;51.38
48774;BME280;34576;0.000;0.000;2023-07-13T07:10:35;96844.22;;;22.23;51.66
48774;BME280;34576;0.000;0.000;2023-07-13T07:17:36;96849.47;;;22.15;50.41
48774;BME280;34576;0.000;0.000;2023-07-13T07:24:36;96862.84;;;21.87;48.68
48774;BME280;34576;0.000;0.000;2023-07-13T07:31:37;96860.00;;;22.39;48.84
48774;BME280;34576;0.000;0.000;2023-07-13T07:38:37;96856.69;;;22.56;48.56
48774;BME280;34576;0.000;0.000;2023-07-13T07:45:38;96861.63;;;22.77;48.37
48774;BME280;34576;0.000;0.000;2023-07-13T07:52:39;96858.44;;;22.74;48.52
48774;BME280;34576;0.000;0.000;2023-07-13T07:59:39;96871.44;;;22.81;48.18
48774;BME280;34576;0.000;0.000;2023-07-13T08:06:39;96866.28;;;22.85;46.78
48774;BME280;34576;0.000;0.000;2023-07-13T08:13:40;96865.38;;;22.89;46.21
48774;BME280;34576;0.000;0.000;2023-07-13T08:20:40;96872.88;;;23.01;46.35
48774;BME280;34576;0.000;0.000;2023-07-13T08:27:40;96867.50;;;23.01;45.33
48774;BME280;34576;0.000;0.000;2023-07-13T08:34:41;96865.38;;;23.26;47.27
48774;BME280;34576;0.000;0.000;2023-07-13T08:41:41;96870.84;;;23.21;47.17
48774;BME280;34576;0.000;0.000;2023-07-13T08:48:46;96872.00;;;23.29;46.41
48774;BME280;34576;0.000;0.000;2023-07-13T08:55:48;96869.03;;;23.30;46.67
48774;BME280;34576;0.000;0.000;2023-07-13T09:02:57;96875.00;;;23.27;46.10
48774;BME280;34576;0.000;0.000;2023-07-13T09:10:20;96876.59;;;23.28;46.69
48774;BME280;34576;0.000;0.000;2023-07-13T09:17:46;96872.09;;;23.37;47.11
48774;BME280;34576;0.000;0.000;2023-07-13T09:24:52;96877.31;;;23.42;47.63
48774;BME280;34576;0.000;0.000;2023-07-13T09:31:54;96870.06;;;23.43;48.02
48774;BME280;34576;0.000;0.000;2023-07-13T09:39:01;96861.56;;;23.50;49.23
48774;BME280;34576;0.000;0.000;2023-07-13T09:46:03;96869.13;;;23.48;49.24
48774;BME280;34576;0.000;0.000;2023-07-13T09:53:10;96864.56;;;23.48;49.88
48774;BME280;34576;0.000;0.000;2023-07-13T10:00:18;96869.63;;;23.50;49.98
48774;BME280;34576;0.000;0.000;2023-07-13T10:07:22;96869.81;;;23.53;50.55
48774;BME280;34576;0.000;0.000;2023-07-13T10:14:22;96874.88;;;23.55;51.11
48774;BME280;34576;0.000;0.000;2023-07-13T10:21:32;96874.06;;;23.54;50.91
48774;BME280;34576;0.000;0.000;2023-07-13T10:28:35;96869.97;;;23.57;50.68
48774;BME280;34576;0.000;0.000;2023-07-13T10:35:37;96872.34;;;23.58;50.70
48774;BME280;34576;0.000;0.000;2023-07-13T10:42:40;96876.63;;;23.59;50.92
48774;BME280;34576;0.000;0.000;2023-07-13T10:49:41;96872.53;;;23.62;50.97
48774;BME280;34576;0.000;0.000;2023-07-13T10:56:43;96876.00;;;23.63;51.00
48774;BME280;34576;0.000;0.000;2023-07-13T11:10:48;96876.19;;;23.66;51.29
48774;BME280;34576;0.000;0.000;2023-07-13T11:17:50;96864.38;;;23.67;51.25
48774;BME280;34576;0.000;0.000;2023-07-13T11:24:52;96867.53;;;23.69;51.64
48774;BME280;34576;0.000;0.000;2023-07-13T11:31:54;96862.16;;;23.69;51.54
48774;BME280;34576;0.000;0.000;2023-07-13T11:38:56;96846.50;;;23.71;51.61
48774;BME280;34576;0.000;0.000;2023-07-13T11:45:58;96851.59;;;23.73;51.62
48774;BME280;34576;0.000;0.000;2023-07-13T11:52:58;96849.69;;;23.73;52.03
48774;BME280;34576;0.000;0.000;2023-07-13T11:59:59;96856.66;;;23.74;51.80
48774;BME280;34576;0.000;0.000;2023-07-13T12:07:11;96843.69;;;23.76;52.07
48774;BME280;34576;0.000;0.000;2023-07-13T12:14:18;96850.66;;;23.77;52.07
48774;BME280;34576;0.000;0.000;2023-07-13T12:21:18;96853.81;;;23.79;52.04
48774;BME280;34576;0.000;0.000;2023-07-13T12:35:29;96840.09;;;23.81;52.31
48774;BME280;34576;0.000;0.000;2023-07-13T12:42:33;96846.25;;;23.82;52.59
48774;BME280;34576;0.000;0.000;2023-07-13T12:49:34;96841.63;;;23.96;51.93
48774;BME280;34576;0.000;0.000;2023-07-13T12:56:35;96840.81;;;23.95;51.03
48774;BME280;34576;0.000;0.000;2023-07-13T13:03:37;96838.28;;;23.90;51.39
48774;BME280;34576;0.000;0.000;2023-07-13T13:10:38;96828.31;;;23.91;51.33
48774;BME280;34576;0.000;0.000;2023-07-13T13:17:38;96826.13;;;23.93;51.28
48774;BME280;34576;0.000;0.000;2023-07-13T13:24:38;96827.69;;;23.94;51.62
48774;BME280;34576;0.000;0.000;2023-07-13T13:31:39;96829.28;;;23.95;51.73
48774;BME280;34576;0.000;0.000;2023-07-13T13:38:39;96823.59;;;23.97;51.99
48774;BME280;34576;0.000;0.000;2023-07-13T13:45:40;96833.59;;;24.05;52.02
48774;BME280;34576;0.000;0.000;2023-07-13T13:52:40;96837.38;;;24.12;51.83
48774;BME280;34576;0.000;0.000;2023-07-13T13:59:40;96834.22;;;24.02;52.21
48774;BME280;34576;0.000;0.000;2023-07-13T14:06:41;96843.53;;;24.04;52.26
48774;BME280;34576;0.000;0.000;2023-07-13T14:13:43;96832.81;;;24.04;52.40
48774;BME280;34576;0.000;0.000;2023-07-13T14:20:45;96840.53;;;24.06;52.48
48774;BME280;34576;0.000;0.000;2023-07-13T14:27:46;96838.63;;;24.06;52.58
48774;BME280;34576;0.000;0.000;2023-07-13T14:34:48;96838.31;;;24.08;52.73
48774;BME280;34576;0.000;0.000;2023-07-13T14:41:55;96847.47;;;24.07;52.76
48774;BME280;34576;0.000;0.000;2023-07-13T14:49:01;96845.59;;;24.07;52.87
48774;BME280;34576;0.000;0.000;2023-07-13T14:56:01;96848.28;;;24.07;53.16
48774;BME280;34576;0.000;0.000;2023-07-13T15:03:02;96846.06;;;24.09;53.03
48774;BME280;34576;0.000;0.000;2023-07-13T15:10:14;96841.78;;;24.08;53.28
48774;BME280;34576;0.000;0.000;2023-07-13T15:24:33;96842.28;;;24.10;53.29
48774;BME280;34576;0.000;0.000;2023-07-13T15:31:33;96842.28;;;24.10;53.38
48774;BME280;34576;0.000;0.000;2023-07-13T15:38:34;96840.38;;;24.11;53.55
48774;BME280;34576;0.000;0.000;2023-07-13T15:45:38;96843.38;;;24.09;53.46
48774;BME280;34576;0.000;0.000;2023-07-13T15:52:39;96850.03;;;24.12;53.44
48774;BME280;34576;0.000;0.000;2023-07-13T15:59:40;96853.50;;;24.12;53.60
48774;BME280;34576;0.000;0.000;2023-07-13T16:06:40;96857.31;;;24.11;53.87
48774;BME280;34576;0.000;0.000;2023-07-13T16:13:41;96839.59;;;24.10;53.63
48774;BME280;34576;0.000;0.000;2023-07-13T16:20:42;96846.56;;;24.11;53.51
48774;BME280;34576;0.000;0.000;2023-07-13T16:27:42;96843.88;;;24.11;53.65
48774;BME280;34576;0.000;0.000;2023-07-13T16:34:43;96848.13;;;24.12;53.42
48774;BME280;34576;0.000;0.000;2023-07-13T16:41:44;96848.13;;;24.12;53.38
48774;BME280;34576;0.000;0.000;2023-07-13T16:48:44;96850.03;;;24.12;53.66
48774;BME280;34576;0.000;0.000;2023-07-13T16:55:44;96867.75;;;24.13;53.59
48774;BME280;34576;0.000;0.000;2023-07-13T17:02:45;96855.88;;;24.14;53.93
48774;BME280;34576;0.000;0.000;2023-07-13T17:09:47;96847.50;;;24.16;54.62
48774;BME280;34576;0.000;0.000;2023-07-13T17:16:47;96848.31;;;24.16;54.84
48774;BME280;34576;0.000;0.000;2023-07-13T17:23:48;96852.88;;;24.16;48.44
48774;BME280;34576;0.000;0.000;2023-07-13T17:30:52;96852.25;;;24.10;46.54
48774;BME280;34576;0.000;0.000;2023-07-13T17:37:54;96849.38;;;24.06;46.65
48774;BME280;34576;0.000;0.000;2023-07-13T17:44:55;96859.78;;;23.99;46.40
48774;BME280;34576;0.000;0.000;2023-07-13T17:51:55;96855.69;;;24.02;46.55
48774;BME280;34576;0.000;0.000;2023-07-13T17:58:56;96866.59;;;24.05;44.92
48774;BME280;34576;0.000;0.000;2023-07-13T18:05:56;96860.25;;;24.01;43.41
48774;BME280;34576;0.000;0.000;2023-07-13T18:12:56;96865.81;;;24.05;45.48
48774;BME280;34576;0.000;0.000;2023-07-13T18:19:57;96864.50;;;23.93;47.63
48774;BME280;34576;0.000;0.000;2023-07-13T18:26:57;96866.09;;;23.94;44.39
48774;BME280;34576;0.000;0.000;2023-07-13T18:33:57;96871.28;;;23.91;43.59
48774;BME280;34576;0.000;0.000;2023-07-13T18:40:58;96871.53;;;23.81;43.52
48774;BME280;34576;0.000;0.000;2023-07-13T18:47:58;96876.56;;;23.73;43.44
48774;BME280;34576;0.000;0.000;2023-07-13T18:54:59;96884.72;;;23.68;43.52
48774;BME280;34576;0.000;0.000;2023-07-13T19:01:59;96885.09;;;23.75;42.43
48774;BME280;34576;0.000;0.000;2023-07-13T19:08:59;96892.69;;;23.51;43.87
48774;BME280;34576;0.000;0.000;2023-07-13T19:16:00;96887.75;;;23.44;45.24
48774;BME280;34576;0.000;0.000;2023-07-13T19:23:01;96889.75;;;23.38;45.53
48774;BME280;34576;0.000;0.000;2023-07-13T19:30:02;96895.34;;;22.55;48.08
48774;BME280;34576;0.000;0.000;2023-07-13T19:37:05;96911.19;;;22.37;49.08
48774;BME280;34576;0.000;0.000;2023-07-13T19:44:12;96921.19;;;22.32;48.13
48774;BME280;34576;0.000;0.000;2023-07-13T19:51:14;96942.75;;;21.80;50.38
48774;BME280;34576;0.000;0.000;2023-07-13T19:58:15;96945.06;;;21.53;51.96
48774;BME280;34576;0.000;0.000;2023-07-13T20:05:17;96944.19;;;21.91;51.18
48774;BME280;34576;0.000;0.000;2023-07-13T20:12:22;96948.53;;;21.87;50.43
48774;BME280;34576;0.000;0.000;2023-07-13T20:19:23;96957.56;;;21.91;49.90
48774;BME280;34576;0.000;0.000;2023-07-13T20:26:24;96960.03;;;21.87;49.63
48774;BME280;34576;0.000;0.000;2023-07-13T20:33:27;96967.34;;;21.82;50.18
48774;BME280;34576;0.000;0.000;2023-07-13T20:40:29;96964.06;;;21.52;50.13
48774;BME280;34576;0.000;0.000;2023-07-13T20:47:30;96971.88;;;21.29;50.15
48774;BME280;34576;0.000;0.000;2023-07-13T20:54:30;96971.00;;;21.15;50.64
48774;BME280;34576;0.000;0.000;2023-07-13T21:01:31;96975.78;;;21.56;49.98
48774;BME280;34576;0.000;0.000;2023-07-13T21:08:33;96987.63;;;21.50;49.61
48774;BME280;34576;0.000;0.000;2023-07-13T21:15:33;96990.72;;;21.19;50.32
48774;BME280;34576;0.000;0.000;2023-07-13T21:22:35;96993.16;;;21.40;49.59
48774;BME280;34576;0.000;0.000;2023-07-13T21:29:35;96973.16;;;21.32;50.31
48774;BME280;34576;0.000;0.000;2023-07-13T21:36:36;96988.00;;;21.05;50.24
48774;BME280;34576;0.000;0.000;2023-07-13T21:43:36;96983.22;;;21.40;50.28
48774;BME280;34576;0.000;0.000;2023-07-13T21:50:37;96990.41;;;20.82;50.99
48774;BME280;34576;0.000;0.000;2023-07-13T21:57:38;96989.28;;;21.08;50.08
48774;BME280;34576;0.000;0.000;2023-07-13T22:04:38;96991.78;;;20.80;50.79
48774;BME280;34576;0.000;0.000;2023-07-13T22:11:38;96985.94;;;20.48;51.61
48774;BME280;34576;0.000;0.000;2023-07-13T22:18:39;96991.03;;;20.21;52.21
48774;BME280;34576;0.000;0.000;2023-07-13T22:25:39;96980.81;;;20.52;51.67
48774;BME280;34576;0.000;0.000;2023-07-13T22:32:39;96980.16;;;20.65;51.25
48774;BME280;34576;0.000;0.000;2023-07-13T22:39:40;96986.06;;;20.62;51.06
48774;BME280;34576;0.000;0.000;2023-07-13T22:46:40;96989.22;;;20.69;50.56
48774;BME280;34576;0.000;0.000;2023-07-13T22:53:41;96994.22;;;20.23;51.81
48774;BME280;34576;0.000;0.000;2023-07-13T23:00:42;96976.19;;;20.33;51.78
48774;BME280;34576;0.000;0.000;2023-07-13T23:07:42;96983.13;;;19.71;53.05
48774;BME280;34576;0.000;0.000;2023-07-13T23:14:43;96979.97;;;19.24;54.36
48774;BME280;34576;0.000;0.000;2023-07-13T23:21:44;96968.78;;;18.56;56.12
48774;BME280;34576;0.000;0.000;2023-07-13T23:28:45;96965.91;;;19.13;54.24
48774;BME280;34576;0.000;0.000;2023-07-13T23:35:47;96966.41;;;19.25;54.61
48774;BME280;34576;0.000;0.000;2023-07-13T23:42:48;96964.81;;;19.59;53.56
48774;BME280;34576;0.000;0.000;2023-07-13T23:49:48;96964.75;;;19.69;53.43
48774;BME280;34576;0.000;0.000;2023-07-13T23:56:48;96965.63;;;18.44;55.97
